Time;durP1;ratioP1;P1;durP2;ratioP2;P2;SDS_P1;SDS_P2;PMS_P1;PMS_P2;Temp;Humidity;BMP_temperature;BMP_pressure;BME280_temperature;BME280_humidity;BME280_pressure;Samples;Min_cycle;Max_cycle;Signal;HPM_P1;HPM_P2
2023/05/11 00:02:22;;;;;;;1.23;1.00;;;9.60;99.90;;;;;;4973296;28;20520;-88
2023/05/11 00:04:49;;;;;;;2.05;1.35;;;9.60;99.90;;;;;;4998693;28;20212;-88
2023/05/11 00:07:16;;;;;;;2.40;1.45;;;9.50;99.90;;;;;;4990302;28;20210;-88
2023/05/11 00:09:45;;;;;;;2.58;1.83;;;9.60;99.90;;;;;;4993835;28;20247;-87
2023/05/11 00:12:13;;;;;;;1.63;1.52;;;9.60;99.90;;;;;;4993212;28;20207;-87
2023/05/11 00:14:40;;;;;;;1.52;1.08;;;9.60;99.90;;;;;;4976383;28;21187;-87
2023/05/11 00:17:07;;;;;;;1.85;1.20;;;9.60;99.90;;;;;;4958784;28;20225;-87
2023/05/11 00:19:34;;;;;;;1.60;1.08;;;9.60;99.90;;;;;;4997593;28;20202;-86
2023/05/11 00:22:01;;;;;;;1.50;1.00;;;9.50;99.90;;;;;;4979383;28;20659;-83
2023/05/11 00:24:28;;;;;;;2.28;1.10;;;9.50;99.90;;;;;;4970676;28;20200;-89
2023/05/11 00:26:57;;;;;;;3.97;1.70;;;9.50;99.90;;;;;;4989344;28;20210;-90
2023/05/11 00:29:24;;;;;;;5.13;1.63;;;9.60;99.90;;;;;;4990671;28;20196;-87
2023/05/11 00:31:51;;;;;;;1.10;1.00;;;9.60;99.90;;;;;;4975264;28;20204;-87
2023/05/11 00:34:18;;;;;;;2.85;1.30;;;9.60;99.90;;;;;;4995896;28;20207;-87
2023/05/11 00:36:46;;;;;;;1.73;1.20;;;9.60;99.90;;;;;;4973522;28;20230;-88
2023/05/11 00:39:13;;;;;;;1.40;1.10;;;9.60;99.90;;;;;;4988108;28;20222;-88
2023/05/11 00:41:41;;;;;;;2.33;1.15;;;9.60;99.90;;;;;;4993721;28;20208;-91
2023/05/11 00:44:11;;;;;;;1.10;1.00;;;9.60;99.90;;;;;;4985451;28;20267;-89
2023/05/11 00:46:39;;;;;;;4.72;1.70;;;9.50;99.90;;;;;;4988075;28;20200;-87
2023/05/11 00:49:06;;;;;;;5.38;1.27;;;9.60;99.90;;;;;;4970265;28;20259;-88
2023/05/11 00:51:33;;;;;;;2.75;1.23;;;9.60;99.90;;;;;;4958292;28;20295;-88
2023/05/11 00:54:01;;;;;;;1.67;1.58;;;9.60;99.90;;;;;;4971475;28;20206;-87
2023/05/11 00:56:28;;;;;;;1.88;1.00;;;9.60;99.90;;;;;;4983101;28;20233;-87
2023/05/11 00:58:55;;;;;;;1.20;1.10;;;9.50;99.90;;;;;;4992807;28;20211;-88
2023/05/11 01:01:24;;;;;;;2.00;1.30;;;9.50;99.90;;;;;;4975358;28;20196;-87
2023/05/11 01:03:51;;;;;;;1.27;1.00;;;9.60;99.90;;;;;;4976653;28;20620;-87
2023/05/11 01:06:30;;;;;;;1.35;1.25;;;9.50;99.90;;;;;;4967493;28;20644;-89
2023/05/11 01:09:03;;;;;;;1.95;1.20;;;9.60;99.90;;;;;;4991101;28;20711;-87
2023/05/11 01:11:37;;;;;;;1.48;1.20;;;9.60;99.90;;;;;;4990599;28;20208;-88
2023/05/11 01:14:09;;;;;;;1.77;1.20;;;9.60;99.90;;;;;;4994354;28;20771;-87
2023/05/11 01:16:40;;;;;;;2.20;1.23;;;9.60;99.90;;;;;;4993736;28;20204;-87
2023/05/11 01:19:19;;;;;;;1.30;1.20;;;9.50;99.90;;;;;;4991705;28;20234;-88
2023/05/11 01:21:50;;;;;;;2.28;1.05;;;9.50;99.90;;;;;;4986217;28;20731;-87
2023/05/11 01:24:45;;;;;;;3.10;1.10;;;9.50;99.90;;;;;;5000376;28;20206;-87
2023/05/11 01:27:42;;;;;;;2.00;1.40;;;9.50;99.90;;;;;;4990399;28;20652;-87
2023/05/11 01:33:11;;;;;;;1.08;1.02;;;9.50;99.90;;;;;;4992754;28;20584;-87
2023/05/11 01:35:44;;;;;;;2.15;1.17;;;9.50;99.90;;;;;;4981069;28;20299;-87
2023/05/11 01:38:16;;;;;;;1.67;1.10;;;9.60;99.90;;;;;;4989938;28;20199;-88
2023/05/11 01:40:50;;;;;;;1.27;1.17;;;9.60;99.90;;;;;;4975318;28;20196;-88
2023/05/11 01:43:22;;;;;;;1.35;1.10;;;9.60;99.90;;;;;;4996990;28;20234;-86
2023/05/11 01:45:51;;;;;;;1.40;1.15;;;9.70;99.90;;;;;;4971756;28;20232;-86
2023/05/11 01:48:22;;;;;;;2.53;1.02;;;9.70;99.90;;;;;;4995245;28;20214;-86
2023/05/11 01:50:54;;;;;;;1.42;1.00;;;9.60;99.90;;;;;;4986915;28;20546;-86
2023/05/11 01:53:42;;;;;;;1.65;0.90;;;9.70;99.90;;;;;;4992525;28;20206;-86
2023/05/11 01:56:11;;;;;;;1.15;1.05;;;9.50;99.90;;;;;;4979720;28;20687;-86
2023/05/11 01:58:40;;;;;;;1.45;1.17;;;9.50;99.90;;;;;;4981991;28;20199;-87
2023/05/11 02:01:12;;;;;;;2.97;1.00;;;9.50;99.90;;;;;;4990854;28;20196;-87
2023/05/11 02:03:40;;;;;;;3.00;1.00;;;9.50;99.90;;;;;;4989997;28;20303;-87
2023/05/11 02:06:09;;;;;;;1.63;1.13;;;9.50;99.90;;;;;;4978243;28;20207;-86
2023/05/11 02:08:39;;;;;;;1.88;1.23;;;9.50;99.90;;;;;;5001161;28;20242;-88
2023/05/11 02:11:07;;;;;;;1.30;1.20;;;9.50;99.90;;;;;;5006258;28;20659;-86
2023/05/11 02:13:36;;;;;;;1.23;0.98;;;9.50;99.90;;;;;;4998863;28;20200;-87
2023/05/11 02:16:04;;;;;;;1.23;1.10;;;9.50;99.90;;;;;;4997486;28;20713;-86
2023/05/11 02:18:34;;;;;;;1.10;0.98;;;9.40;99.90;;;;;;4978045;28;20226;-88
2023/05/11 02:21:16;;;;;;;1.17;1.05;;;9.40;99.90;;;;;;4997186;28;20207;-86
2023/05/11 02:23:45;;;;;;;2.03;0.95;;;9.30;99.90;;;;;;5003652;28;20203;-86
2023/05/11 02:26:27;;;;;;;1.63;0.90;;;9.30;99.90;;;;;;5017061;28;20199;-86
2023/05/11 02:28:54;;;;;;;1.00;1.00;;;9.30;99.90;;;;;;4971665;28;20659;-87
2023/05/11 02:31:25;;;;;;;2.47;1.15;;;9.40;99.90;;;;;;4997136;28;20223;-86
2023/05/11 02:33:58;;;;;;;1.30;0.90;;;9.40;99.90;;;;;;4982509;28;20235;-87
2023/05/11 02:36:28;;;;;;;1.85;0.90;;;9.40;99.90;;;;;;4996525;28;20220;-86
2023/05/11 02:39:02;;;;;;;1.23;0.80;;;9.40;99.90;;;;;;4997710;28;20582;-87
2023/05/11 02:41:31;;;;;;;0.90;0.90;;;9.30;99.90;;;;;;4980827;28;20199;-87
2023/05/11 02:44:04;;;;;;;1.67;1.17;;;9.30;99.90;;;;;;4996399;28;20210;-88
2023/05/11 02:46:37;;;;;;;0.70;0.70;;;9.40;99.90;;;;;;4987897;28;20689;-87
2023/05/11 02:51:50;;;;;;;1.58;0.80;;;9.30;99.90;;;;;;5002482;28;20211;-86
2023/05/11 02:57:39;;;;;;;1.13;1.02;;;9.30;99.90;;;;;;4996897;28;20239;-87
2023/05/11 03:00:08;;;;;;;0.90;0.90;;;9.30;99.90;;;;;;4995865;28;20192;-87
2023/05/11 03:02:35;;;;;;;0.70;0.70;;;9.30;99.90;;;;;;4979253;28;20200;-86
2023/05/11 03:05:04;;;;;;;2.45;0.90;;;9.40;99.90;;;;;;4988707;28;20295;-87
2023/05/11 03:07:32;;;;;;;2.38;0.73;;;9.40;99.90;;;;;;4992848;28;20196;-87
2023/05/11 03:09:59;;;;;;;1.05;0.90;;;9.40;99.90;;;;;;4961870;28;20212;-87
2023/05/11 03:12:30;;;;;;;0.70;0.70;;;9.40;99.90;;;;;;4996459;28;20644;-86
2023/05/11 03:14:58;;;;;;;1.25;0.85;;;9.40;99.90;;;;;;4996509;28;20283;-87
2023/05/11 04:35:01;;;;;;;0.60;0.60;;;9.00;99.90;;;;;;5033645;28;20210;-90
2023/05/11 04:37:53;;;;;;;1.33;0.80;;;8.90;99.90;;;;;;5034717;28;20598;-92
2023/05/11 04:40:20;;;;;;;0.95;0.75;;;8.90;99.90;;;;;;5036131;28;20269;-90
2023/05/11 04:43:37;;;;;;;1.30;0.90;;;8.90;99.90;;;;;;5035815;28;20546;-90
2023/05/11 04:46:04;;;;;;;1.83;0.68;;;9.00;99.90;;;;;;5028582;28;20694;-86
2023/05/11 04:48:31;;;;;;;1.23;0.70;;;8.90;99.90;;;;;;5041522;28;20202;-89
2023/05/11 04:51:34;;;;;;;1.55;0.75;;;8.90;99.90;;;;;;5017242;28;20236;-91
2023/05/11 04:54:10;;;;;;;2.38;0.68;;;8.90;99.90;;;;;;5031544;28;20194;-91
2023/05/11 04:56:39;;;;;;;1.48;0.68;;;9.00;99.90;;;;;;5021887;28;20257;-89
2023/05/11 04:59:06;;;;;;;0.60;0.60;;;9.00;99.90;;;;;;4995372;28;20199;-89
2023/05/11 05:01:33;;;;;;;2.42;0.98;;;9.00;99.90;;;;;;5013807;28;20290;-89
2023/05/11 05:04:00;;;;;;;2.08;0.95;;;9.00;99.90;;;;;;5018586;28;20285;-86
2023/05/11 05:06:28;;;;;;;1.95;1.00;;;9.00;99.90;;;;;;5018255;28;20191;-88
2023/05/11 05:22:36;;;;;;;0.95;0.80;;;9.10;99.90;;;;;;5034032;28;20622;-87
2023/05/11 05:25:22;;;;;;;1.25;0.77;;;9.10;99.90;;;;;;5017716;28;20259;-89
2023/05/11 05:31:11;;;;;;;0.70;0.68;;;9.10;99.90;;;;;;5034448;28;20189;-90
2023/05/11 05:33:38;;;;;;;0.68;0.68;;;9.10;99.90;;;;;;5035131;28;20202;-89
2023/05/11 13:55:28;;;;;;;0.73;0.73;;;11.30;99.90;;;;;;5012767;28;20332;-88
2023/05/11 13:57:56;;;;;;;0.60;0.60;;;11.30;99.90;;;;;;4995880;28;20219;-87
2023/05/11 14:00:23;;;;;;;6.18;4.07;;;11.40;99.90;;;;;;4977273;28;20188;-88
2023/05/11 14:09:58;;;;;;;1.35;1.25;;;11.30;99.90;;;;;;4993654;28;20655;-88
2023/05/11 14:21:51;;;;;;;2.10;1.90;;;11.30;99.90;;;;;;5830033;23;20230;-89
2023/05/11 14:24:19;;;;;;;1.25;0.90;;;11.30;99.90;;;;;;5011843;28;20215;-92
2023/05/11 14:29:33;;;;;;;3.00;2.15;;;11.30;99.90;;;;;;5013260;28;20206;-88
2023/05/11 14:32:56;;;;;;;3.95;3.13;;;11.30;99.90;;;;;;4996202;28;20221;-88
2023/05/11 14:35:23;;;;;;;3.90;3.35;;;11.50;99.90;;;;;;4998673;28;20205;-85
2023/05/11 14:37:50;;;;;;;2.13;1.80;;;11.50;99.90;;;;;;4975174;28;20236;-85
2023/05/11 14:40:17;;;;;;;1.38;1.02;;;11.50;99.90;;;;;;5003417;28;20191;-85
2023/05/11 14:42:45;;;;;;;5.53;2.40;;;11.20;99.90;;;;;;5032879;28;20678;-85
2023/05/11 14:45:13;;;;;;;2.58;1.15;;;11.10;99.90;;;;;;5033505;28;20187;-84
2023/05/11 14:55:18;;;;;;;1.73;1.42;;;10.80;99.90;;;;;;5011318;28;20194;-85
2023/05/11 14:57:47;;;;;;;2.10;1.35;;;10.80;99.90;;;;;;5038150;28;20222;-86
2023/05/11 15:00:15;;;;;;;3.88;3.15;;;10.90;99.90;;;;;;5037321;28;20210;-85
2023/05/11 15:22:05;;;;;;;1.42;1.33;;;10.90;99.90;;;;;;6218488;22;20157;-86
2023/05/11 15:24:35;;;;;;;0.77;0.77;;;11.00;99.90;;;;;;4995633;28;20320;-85
2023/05/11 15:30:11;;;;;;;1.40;0.80;;;10.80;99.90;;;;;;4958710;28;20682;-85
2023/05/11 15:33:03;;;;;;;1.40;1.30;;;10.90;99.90;;;;;;4995857;28;20204;-84
2023/05/11 15:35:30;;;;;;;0.63;0.52;;;11.10;99.90;;;;;;4976495;28;20192;-84
2023/05/11 15:37:59;;;;;;;1.52;1.15;;;11.20;99.90;;;;;;4993596;28;20234;-84
2023/05/11 15:40:27;;;;;;;2.75;1.38;;;11.20;99.90;;;;;;4995104;28;20291;-87
2023/05/11 15:42:54;;;;;;;2.17;1.30;;;11.30;99.90;;;;;;4995460;28;20199;-87
2023/05/11 15:45:21;;;;;;;1.20;1.10;;;11.40;99.90;;;;;;4990576;28;20528;-87
2023/05/11 15:47:47;;;;;;;1.42;1.00;;;11.30;99.90;;;;;;4993750;28;20208;-89
2023/05/11 15:50:15;;;;;;;0.90;0.90;;;11.20;99.90;;;;;;4988364;28;20204;-87
2023/05/11 15:52:42;;;;;;;1.90;1.20;;;11.00;99.90;;;;;;5006207;28;20680;-85
2023/05/11 15:55:10;;;;;;;1.75;1.15;;;11.00;99.90;;;;;;4995852;28;20587;-86
2023/05/11 15:57:37;;;;;;;1.20;1.10;;;11.10;99.90;;;;;;4989669;28;20228;-86
2023/05/11 16:00:05;;;;;;;2.22;1.45;;;11.10;99.90;;;;;;4996083;28;20192;-87
2023/05/11 16:02:34;;;;;;;1.00;0.82;;;11.10;99.90;;;;;;4994332;28;20220;-85
2023/05/11 16:05:01;;;;;;;2.28;2.03;;;11.00;99.90;;;;;;4992352;28;20200;-87
2023/05/11 16:07:28;;;;;;;8.38;7.10;;;10.90;99.90;;;;;;4991461;28;20215;-87
2023/05/11 16:09:55;;;;;;;4.43;3.78;;;10.90;99.90;;;;;;4994725;28;20199;-86
2023/05/11 16:12:24;;;;;;;6.40;5.10;;;10.90;99.90;;;;;;4996958;28;20251;-87
2023/05/11 16:14:51;;;;;;;7.88;6.18;;;10.90;99.90;;;;;;4987293;28;20204;-88
2023/05/11 16:17:19;;;;;;;6.78;5.60;;;11.00;99.90;;;;;;4990160;28;20228;-88
2023/05/11 16:19:47;;;;;;;1.45;1.10;;;11.00;99.90;;;;;;4994561;28;20196;-86
2023/05/11 16:22:14;;;;;;;3.38;2.90;;;10.90;99.90;;;;;;4962341;28;20657;-89
2023/05/11 16:24:42;;;;;;;6.40;5.32;;;10.80;99.90;;;;;;4977934;28;20232;-90
2023/05/11 16:27:09;;;;;;;1.00;0.90;;;10.90;99.90;;;;;;4997640;28;20214;-89
2023/05/11 16:29:38;;;;;;;3.42;1.30;;;10.90;99.90;;;;;;4978152;28;20242;-87
2023/05/11 16:32:27;;;;;;;2.63;2.08;;;10.80;99.90;;;;;;5001086;28;20203;-90
2023/05/11 16:41:46;;;;;;;3.10;2.80;;;10.90;99.90;;;;;;4990952;28;20385;-86
2023/05/11 16:44:13;;;;;;;2.40;1.13;;;11.00;99.90;;;;;;4977849;28;20227;-85
2023/05/11 16:46:42;;;;;;;1.73;0.80;;;10.90;99.90;;;;;;4994248;28;20210;-84
2023/05/11 16:49:09;;;;;;;3.35;2.42;;;10.80;99.90;;;;;;4983233;28;20196;-87
2023/05/11 16:51:36;;;;;;;3.25;1.80;;;10.90;99.90;;;;;;4981995;28;20572;-87
2023/05/11 16:54:03;;;;;;;1.40;1.30;;;11.00;99.90;;;;;;4969353;28;20222;-85
2023/05/11 16:56:30;;;;;;;1.40;1.08;;;11.00;99.90;;;;;;4981098;28;20627;-87
2023/05/11 16:59:01;;;;;;;1.65;1.13;;;11.00;99.90;;;;;;4971452;28;20303;-89
2023/05/11 17:01:31;;;;;;;6.13;4.15;;;11.00;99.90;;;;;;4967065;28;20290;-86
2023/05/11 17:03:59;;;;;;;5.63;5.03;;;11.20;99.90;;;;;;4990609;28;20206;-86
2023/05/11 17:06:27;;;;;;;1.30;1.20;;;11.40;99.90;;;;;;4974282;28;20295;-85
2023/05/11 17:12:17;;;;;;;1.45;1.35;;;11.20;99.90;;;;;;5001766;28;20203;-86
2023/05/11 17:14:46;;;;;;;1.85;1.58;;;11.10;99.90;;;;;;4990730;28;20203;-86
2023/05/11 17:17:13;;;;;;;4.05;1.20;;;11.20;99.90;;;;;;4969111;28;20681;-88
2023/05/11 17:19:43;;;;;;;2.03;1.13;;;11.10;99.90;;;;;;4973159;28;20236;-88
2023/05/11 17:22:10;;;;;;;3.97;1.90;;;11.00;99.90;;;;;;4956954;28;20328;-88
2023/05/11 17:24:38;;;;;;;2.88;1.60;;;11.00;99.90;;;;;;4980734;28;20195;-86
2023/05/11 17:27:05;;;;;;;4.07;3.17;;;11.00;99.90;;;;;;4986001;28;20210;-86
2023/05/11 17:29:33;;;;;;;4.15;3.30;;;11.00;99.90;;;;;;4993240;28;20708;-86
2023/05/11 17:32:00;;;;;;;1.35;1.10;;;11.20;99.90;;;;;;4995745;28;20199;-87
2023/05/11 17:34:27;;;;;;;2.63;2.25;;;11.20;99.90;;;;;;4972562;28;20203;-87
2023/05/11 17:36:57;;;;;;;1.73;1.63;;;11.10;99.90;;;;;;4984243;28;20208;-85
2023/05/11 17:39:43;;;;;;;1.42;1.30;;;11.10;99.90;;;;;;5003010;28;20215;-89
2023/05/11 17:42:11;;;;;;;2.00;1.70;;;10.90;99.90;;;;;;4975936;28;20208;-87
2023/05/11 17:44:39;;;;;;;1.48;1.33;;;10.80;99.90;;;;;;4994253;28;20250;-86
2023/05/11 17:47:06;;;;;;;2.20;1.80;;;11.10;99.90;;;;;;4981101;28;20687;-86
2023/05/11 17:49:33;;;;;;;2.38;1.30;;;11.00;99.90;;;;;;4961493;28;20211;-86
2023/05/11 17:52:02;;;;;;;1.75;1.30;;;10.90;99.90;;;;;;4989106;28;20254;-90
2023/05/11 17:54:29;;;;;;;2.50;2.13;;;10.90;99.90;;;;;;4985886;28;20204;-88
2023/05/11 17:56:57;;;;;;;2.38;2.05;;;10.90;99.90;;;;;;4993605;28;20200;-87
2023/05/11 17:59:24;;;;;;;2.38;1.60;;;11.00;99.90;;;;;;4994021;28;20231;-87
2023/05/11 18:05:21;;;;;;;2.33;1.30;;;11.40;99.90;;;;;;4991484;28;20185;-88
2023/05/11 18:18:15;;;;;;;2.92;2.53;;;10.80;99.90;;;;;;4980251;28;20261;-88
2023/05/11 19:08:33;;;;;;;7.97;6.07;;;10.90;99.90;;;;;;4975885;28;20241;-92
2023/05/11 19:11:53;;;;;;;4.53;3.67;;;11.00;99.90;;;;;;4995785;28;20196;-90
